Terminal Aerodrome Forecast
Issued by NWS Wichita, KS

Home | Current Version | Previous Version | Text Only | Print | Product List | Glossary Off
Versions: 1 2 3 4 5 6 7 8 9 10 11 12 13 14 15 16 17 18 19 20 21 22 23 24 25 26 27 28 29

000
FTUS43 KICT 290622 AAA
TAFICT
TAF AMD
KICT 290622Z 2906/3006 VRB06KT P6SM -TSRA BKN015 OVC035CB
     FM290800 VRB06KT P6SM SCT015 BKN080
     FM291200 19014KT P6SM BKN080
     FM300100 20003KT P6SM BKN120=

USA.gov is the U.S. government's official web portal to all federal, state and local government web resources and services.